Portada
METAR-TAF:

METAR-TAF

Aeroports :

Medina, Aràbia Saudita

latitud: 24-33N, longitud: 039-42E, altitud: 654 m

Observació

L'informe es va fer fa 50 minuts, a les 19:00 UTC
Vent 6 kt del Est/Nord-Est
Temperatura 28°C
Humitat 10%
Pressió 1017 hPa
Visibilitat 10 km o més
sense núvols per sota de 1500 mi sense presència de cumulonimbus.

METAR: OEMA 301900Z 07006KT CAVOK 28/M07 Q1017 NOSIG

Hora: 22:50 (19:50 UTC)

Pronòstic

L'informe es va fer fa 2 hores i 50 minuts, a les 17:00 UTC
Pronòstic vàlid del 30 a les 18 UTC al 31 a les 24 UTC
Vent 8 kt del Est/Nord-Est
Visibilitat 10 km o més
sense núvols per sota de 1500 mi sense presència de cumulonimbus.

TAF: OEMA 301700Z 3018/3124 07008KT CAVOK

Observacions i pronòstics meteorològics de més de 4000 aeroports (METAR i TAF).

Les estacions disponibles són els punts grocs i vermells al mapa.

Posi el ratolí al punt desitjat per veure el nom de l'estació.

Feu clic per veure les observacions i els pronòstics meteorològics.

Per canviar el mapa: feu clic els botons verds amb una creu de color negre per apropar; al botó verd amb un guió per allunyar la imatge; o en les fletxes verdes per a mapes adjacents.


METAR-TAF: